Skip Navigation Links Skip Navigation Links

Current Weather

Tweed-New Haven, New Haven, Conn.

For information only: do not use for flight planning or navigation.
Latest weather
Observation time Saturday, June 6, 2020 6:53 PM EDT
Local time Saturday, June 6, 2020 7:17 PM EDT
Flight conditions Visual Meteorological Conditions
Winds
Wind speed calm
Visibility 10 mi.
Sky condition
Ceiling 7,500 ft. broken clouds
Cloud layer broken clouds 7,500 ft.
Cloud layer broken clouds 11,000 ft.
Temperature 77°F
Dewpoint 66°F
Altimeter 29.69 in.Hg
Derived measurements
Relative humidity 69%
Heat index 77°F
Density altitude 1734 ft.
Sea-level pressure 29.68 in.Hg
Remarks
Automated weather observing station with precipitation discriminator.
METAR KHVN 062253Z 00000KT 10SM BKN075 BKN110 25/19 A2969 RMK AO2 SLP052 T02500189

Settings

Location code

InnerDrive.Weather 4.0.6770.0 Release CLR 4.0.30319.42000
Copyright ©2018 Inner Drive Technology. All rights reserved. Portions Copyright ©1986-2018 David Braverman.

Find weather

Site navigation


Skip Navigation Links

Place info

Page info

PayPal - The safer, easier way to pay online!

Return home.

Copyright ©2020 Inner Drive Technology. Purveyors of fine, hand-crafted computer software. Page printed 2020-06-06T23:17:15 UTC.